createdAt,value
2019-05-07T00:01:26.577Z,17.27
2019-05-07T00:03:56.341Z,15.97
2019-05-07T00:06:25.316Z,15.80
2019-05-07T00:08:54.259Z,16.73
2019-05-07T00:11:23.219Z,19.23
2019-05-07T00:13:52.513Z,17.07
2019-05-07T00:16:22.444Z,16.73
2019-05-07T00:18:52.548Z,18.03
2019-05-07T00:21:23.631Z,17.47
2019-05-07T00:23:52.822Z,16.73
2019-05-07T00:26:22.544Z,17.50
2019-05-07T00:28:52.858Z,16.40
2019-05-07T00:31:23.274Z,16.83
2019-05-07T00:33:52.707Z,16.97
2019-05-07T00:36:42.039Z,17.50
2019-05-07T00:39:33.175Z,16.60
2019-05-07T00:42:12.582Z,16.83
2019-05-07T00:45:16.348Z,18.60
2019-05-07T00:47:30.109Z,18.73
2019-05-07T00:50:03.321Z,18.87
2019-05-07T00:52:33.468Z,17.93
2019-05-07T00:55:03.012Z,17.60
2019-05-07T00:57:32.521Z,18.30
2019-05-07T01:00:02.165Z,19.53
2019-05-07T01:02:32.382Z,19.93
2019-05-07T01:05:03.018Z,20.50
2019-05-07T01:07:32.564Z,20.63
2019-05-07T01:10:02.337Z,18.47
2019-05-07T01:12:32.896Z,18.37
2019-05-07T01:15:02.922Z,19.50
2019-05-07T01:17:33.508Z,17.90
2019-05-07T01:20:03.053Z,19.40
2019-05-07T01:22:33.096Z,19.57
2019-05-07T01:25:02.827Z,19.97
2019-05-07T01:27:32.284Z,21.30
2019-05-07T01:30:02.515Z,18.87
2019-05-07T01:32:47.132Z,19.20
2019-05-07T01:35:22.462Z,20.13
2019-05-07T01:37:52.400Z,21.10
2019-05-07T01:40:22.795Z,21.60
2019-05-07T01:42:52.981Z,19.87
2019-05-07T01:45:24.947Z,19.40
2019-05-07T01:47:53.178Z,21.07
2019-05-07T01:50:22.847Z,21.57
2019-05-07T01:52:52.345Z,19.20
2019-05-07T01:55:22.538Z,18.43
2019-05-07T01:57:52.392Z,18.92
2019-05-07T02:00:22.493Z,18.47
2019-05-07T02:02:59.699Z,19.63
2019-05-07T02:05:37.990Z,18.80
2019-05-07T02:08:09.119Z,22.17
2019-05-07T02:11:03.970Z,20.67
2019-05-07T02:13:33.840Z,20.53
2019-05-07T02:16:04.293Z,19.43
2019-05-07T02:18:33.396Z,20.17
2019-05-07T02:21:03.275Z,20.10
2019-05-07T02:23:33.065Z,19.93
2019-05-07T02:26:02.936Z,19.33
2019-05-07T02:28:32.926Z,19.70
2019-05-07T02:31:04.105Z,21.17
2019-05-07T02:33:35.065Z,18.63
2019-05-07T02:36:03.276Z,19.13
2019-05-07T02:38:44.175Z,20.27
2019-05-07T02:41:16.681Z,18.67
2019-05-07T02:43:45.575Z,18.30
2019-05-07T02:46:36.886Z,19.63
2019-05-07T02:49:14.276Z,18.80
2019-05-07T02:51:53.146Z,19.47
2019-05-07T02:54:26.953Z,19.20
2019-05-07T02:56:56.877Z,19.47
2019-05-07T02:59:26.193Z,20.80
2019-05-07T03:01:55.168Z,19.20
2019-05-07T03:04:25.179Z,19.70
2019-05-07T03:06:55.250Z,20.50
2019-05-07T03:09:24.247Z,20.70
2019-05-07T03:11:53.268Z,19.23
2019-05-07T03:14:23.629Z,20.07
2019-05-07T03:16:53.581Z,19.90
2019-05-07T03:19:24.365Z,20.87
2019-05-07T03:21:54.680Z,21.30
2019-05-07T03:24:34.263Z,21.97
2019-05-07T03:27:03.396Z,19.87
2019-05-07T03:29:33.707Z,20.53
2019-05-07T03:32:38.293Z,21.97
2019-05-07T03:35:37.278Z,19.37
2019-05-07T03:38:03.758Z,21.17
2019-05-07T03:40:34.668Z,24.27
2019-05-07T03:43:06.041Z,21.13
2019-05-07T03:45:49.854Z,21.83
2019-05-07T03:48:23.428Z,20.10
2019-05-07T03:50:52.883Z,21.33
2019-05-07T03:53:23.341Z,19.97
2019-05-07T03:55:53.876Z,21.73
2019-05-07T03:58:23.892Z,21.80
2019-05-07T04:00:53.822Z,20.13
2019-05-07T04:03:24.735Z,22.40
2019-05-07T04:05:55.667Z,22.70
2019-05-07T04:08:25.914Z,23.50
2019-05-07T04:10:55.103Z,23.37
2019-05-07T04:13:24.529Z,21.87
2019-05-07T04:15:53.765Z,23.70
2019-05-07T04:18:23.712Z,22.00
2019-05-07T04:20:53.982Z,21.80
2019-05-07T04:23:23.679Z,22.90
2019-05-07T04:26:09.318Z,20.73
2019-05-07T04:28:57.300Z,21.00
2019-05-07T04:31:28.840Z,21.17
2019-05-07T04:33:59.807Z,21.87
2019-05-07T04:36:34.134Z,20.63
2019-05-07T04:39:03.261Z,22.37
2019-05-07T04:41:33.264Z,23.60
2019-05-07T04:44:03.626Z,22.07
2019-05-07T04:46:33.569Z,23.00
2019-05-07T04:49:03.784Z,22.87
2019-05-07T04:51:43.419Z,22.00
2019-05-07T04:54:13.364Z,22.57
2019-05-07T04:56:43.613Z,22.53
2019-05-07T04:59:13.319Z,23.57
2019-05-07T05:01:47.651Z,22.10
2019-05-07T05:04:28.107Z,30.47
2019-05-07T05:06:47.807Z,21.90
2019-05-07T05:09:18.675Z,22.60
2019-05-07T05:11:47.597Z,22.02
2019-05-07T05:14:16.995Z,21.33
2019-05-07T05:16:46.139Z,22.40
2019-05-07T05:19:15.059Z,21.33
2019-05-07T05:21:57.575Z,22.30
2019-05-07T05:24:33.011Z,20.23
2019-05-07T05:27:02.636Z,21.30
2019-05-07T05:29:33.656Z,23.07
2019-05-07T05:32:02.582Z,24.40
2019-05-07T05:34:32.898Z,21.47
2019-05-07T05:37:02.561Z,21.50
2019-05-07T05:39:32.094Z,22.47
2019-05-07T05:42:11.737Z,21.93
2019-05-07T05:44:41.724Z,22.03
2019-05-07T05:47:11.967Z,20.30
2019-05-07T05:49:42.881Z,23.43
2019-05-07T05:52:22.499Z,22.90
2019-05-07T05:54:58.936Z,23.13
2019-05-07T05:57:44.524Z,24.03
2019-05-07T06:00:32.892Z,21.97
2019-05-07T06:03:18.740Z,26.10
2019-05-07T06:05:54.224Z,21.70
2019-05-07T06:08:32.661Z,23.20
2019-05-07T06:11:27.595Z,23.40
2019-05-07T06:14:07.206Z,24.27
2019-05-07T06:16:42.050Z,24.93
2019-05-07T06:19:42.299Z,24.03
2019-05-07T06:22:49.440Z,24.93
2019-05-07T06:25:24.717Z,22.73
2019-05-07T06:27:52.581Z,22.58
2019-05-07T06:30:23.399Z,21.00
2019-05-07T06:32:52.445Z,21.53
2019-05-07T06:38:16.415Z,23.53
2019-05-07T06:41:17.940Z,22.30
2019-05-07T06:43:52.125Z,21.33
2019-05-07T06:46:23.177Z,21.50
2019-05-07T06:48:52.688Z,24.53
2019-05-07T06:51:22.157Z,22.83
2019-05-07T06:53:51.931Z,23.50
2019-05-07T06:56:23.061Z,20.73
2019-05-07T06:59:08.630Z,24.27
2019-05-07T07:01:55.735Z,21.17
2019-05-07T07:04:28.743Z,19.50
2019-05-07T07:07:03.515Z,19.10
2019-05-07T07:09:37.784Z,20.33
2019-05-07T07:12:12.751Z,20.23
2019-05-07T07:14:42.370Z,20.17
2019-05-07T07:17:12.955Z,21.27
2019-05-07T07:19:42.866Z,20.90
2019-05-07T07:22:12.958Z,23.70
2019-05-07T07:24:42.572Z,23.13
2019-05-07T07:27:13.978Z,25.30
2019-05-07T07:29:52.286Z,27.00
2019-05-07T07:34:57.752Z,27.20
2019-05-07T07:37:34.856Z,25.23
2019-05-07T07:40:42.560Z,24.50
2019-05-07T07:43:12.857Z,24.80
2019-05-07T07:45:42.195Z,23.77
2019-05-07T07:48:13.130Z,27.10
2019-05-07T07:50:42.608Z,24.57
2019-05-07T07:53:13.008Z,25.03
2019-05-07T07:56:02.656Z,24.10
2019-05-07T07:58:41.916Z,24.77
2019-05-07T08:01:25.667Z,26.40
2019-05-07T08:03:54.812Z,24.23
2019-05-07T08:06:25.523Z,25.57
2019-05-07T08:08:57.249Z,24.93
2019-05-07T08:11:26.389Z,23.43
2019-05-07T08:13:55.392Z,26.27
2019-05-07T08:16:24.584Z,23.00
2019-05-07T08:18:53.657Z,24.20
2019-05-07T08:21:22.918Z,22.03
2019-05-07T08:23:52.930Z,23.43
2019-05-07T08:28:57.255Z,24.60
2019-05-07T08:31:43.438Z,24.90
2019-05-07T08:34:22.063Z,26.47
2019-05-07T08:36:52.744Z,23.90
2019-05-07T08:39:25.146Z,25.70
2019-05-07T08:41:53.466Z,23.80
2019-05-07T08:44:26.269Z,24.57
2019-05-07T08:47:32.993Z,25.30
2019-05-07T08:50:02.832Z,26.40
2019-05-07T08:52:32.701Z,23.83
2019-05-07T08:55:02.474Z,22.77
2019-05-07T08:57:31.952Z,24.60
2019-05-07T09:00:04.485Z,25.23
2019-05-07T09:05:09.278Z,21.63
2019-05-07T09:07:39.342Z,23.20
2019-05-07T09:10:08.821Z,23.23
2019-05-07T09:12:37.906Z,21.93
2019-05-07T09:15:07.152Z,22.37
2019-05-07T09:17:36.154Z,21.80
2019-05-07T09:20:05.560Z,20.30
2019-05-07T09:22:34.567Z,20.83
2019-05-07T09:25:04.171Z,21.33
2019-05-07T09:27:42.872Z,21.07
2019-05-07T09:30:42.069Z,20.20
2019-05-07T09:33:36.214Z,19.47
2019-05-07T09:36:08.175Z,20.50
2019-05-07T09:38:37.187Z,21.90
2019-05-07T09:41:08.199Z,21.67
2019-05-07T09:43:37.658Z,21.53
2019-05-07T09:46:06.570Z,19.90
2019-05-07T09:48:35.589Z,20.77
2019-05-07T09:51:04.660Z,19.50
2019-05-07T09:53:33.628Z,20.47
2019-05-07T09:56:02.695Z,21.93
2019-05-07T09:58:36.577Z,20.00
2019-05-07T10:01:02.854Z,21.63
2019-05-07T10:03:32.531Z,22.33
2019-05-07T10:06:02.259Z,19.13
2019-05-07T10:08:31.964Z,20.23
2019-05-07T10:13:56.783Z,21.37
2019-05-07T10:16:34.807Z,19.17
2019-05-07T10:19:04.043Z,19.80
2019-05-07T10:21:33.078Z,21.73
2019-05-07T10:24:03.061Z,19.20
2019-05-07T10:26:32.705Z,19.10
2019-05-07T10:29:02.572Z,24.00
2019-05-07T10:31:32.024Z,22.47
2019-05-07T10:34:03.025Z,17.07
2019-05-07T10:39:08.083Z,17.87
2019-05-07T10:41:37.099Z,18.53
2019-05-07T10:44:06.469Z,16.97
2019-05-07T10:47:07.332Z,16.33
2019-05-07T10:49:42.265Z,15.40
2019-05-07T10:52:12.592Z,15.57
2019-05-07T10:54:42.528Z,17.13
2019-05-07T10:57:12.023Z,16.10
2019-05-07T10:59:42.235Z,14.80
2019-05-07T11:02:21.839Z,15.97
2019-05-07T11:04:53.081Z,16.00
2019-05-07T11:07:22.222Z,17.30
2019-05-07T11:09:52.650Z,15.00
2019-05-07T11:12:22.905Z,14.33
2019-05-07T11:14:52.276Z,17.47
2019-05-07T11:17:35.087Z,17.10
2019-05-07T11:20:04.293Z,15.17
2019-05-07T11:22:34.293Z,17.27
2019-05-07T11:25:03.424Z,14.83
2019-05-07T11:27:33.125Z,16.07
2019-05-07T11:30:05.463Z,17.37
2019-05-07T11:32:34.374Z,15.10
2019-05-07T11:35:03.312Z,15.17
2019-05-07T11:37:32.239Z,16.50
2019-05-07T11:40:03.214Z,17.70
2019-05-07T11:43:04.389Z,17.50
2019-05-07T11:45:48.396Z,16.67
2019-05-07T11:48:18.361Z,17.57
2019-05-07T11:51:05.409Z,18.60
2019-05-07T11:53:34.342Z,19.73
2019-05-07T11:56:03.326Z,17.20
2019-05-07T11:58:32.664Z,18.57
2019-05-07T12:01:12.527Z,16.10
2019-05-07T12:03:42.869Z,16.73
2019-05-07T12:06:12.422Z,16.83
2019-05-07T12:08:49.781Z,16.50
2019-05-07T12:11:12.380Z,18.30
2019-05-07T12:13:42.843Z,16.50
2019-05-07T12:16:14.129Z,17.27
2019-05-07T12:18:43.221Z,15.47
2019-05-07T12:21:20.133Z,16.87
2019-05-07T12:23:43.265Z,16.33
2019-05-07T12:26:12.522Z,19.23
2019-05-07T12:28:43.744Z,16.90
2019-05-07T12:31:30.703Z,17.60
2019-05-07T12:34:20.026Z,15.10
2019-05-07T12:36:48.959Z,16.33
2019-05-07T12:39:18.011Z,14.47
2019-05-07T12:41:48.177Z,15.57
2019-05-07T12:44:17.171Z,14.17
2019-05-07T12:46:46.732Z,16.90
2019-05-07T12:49:15.667Z,14.23
2019-05-07T12:52:09.606Z,16.50
2019-05-07T12:54:44.856Z,22.87
2019-05-07T12:57:14.333Z,15.37
2019-05-07T12:59:43.245Z,14.40
2019-05-07T13:02:38.191Z,15.00
2019-05-07T13:05:02.823Z,16.37
2019-05-07T13:07:54.454Z,15.97
2019-05-07T13:10:23.546Z,16.70
2019-05-07T13:12:52.809Z,14.80
2019-05-07T13:15:27.546Z,16.00
2019-05-07T13:17:53.871Z,15.60
2019-05-07T13:20:23.715Z,18.17
2019-05-07T13:22:53.055Z,14.07
2019-05-07T13:25:28.122Z,14.50
2019-05-07T13:27:53.787Z,12.83
2019-05-07T13:30:23.436Z,15.50
2019-05-07T13:32:53.559Z,14.07
2019-05-07T13:35:22.594Z,14.83
2019-05-07T13:38:11.862Z,13.80
2019-05-07T13:40:58.555Z,14.30
2019-05-07T13:43:32.577Z,14.53
2019-05-07T13:46:12.882Z,14.73
2019-05-07T13:48:45.506Z,15.27
2019-05-07T13:51:14.742Z,14.10
2019-05-07T13:53:43.943Z,14.50
2019-05-07T13:56:14.247Z,13.07
2019-05-07T13:58:43.301Z,15.90
2019-05-07T14:01:29.523Z,13.30
2019-05-07T14:03:58.942Z,13.30
2019-05-07T14:06:42.708Z,12.90
2019-05-07T14:09:18.789Z,12.10
2019-05-07T14:11:48.600Z,14.20
2019-05-07T14:14:17.694Z,13.30
2019-05-07T14:16:46.737Z,14.10
2019-05-07T14:19:15.723Z,12.60
2019-05-07T14:21:44.826Z,13.27
2019-05-07T14:24:14.833Z,12.97
2019-05-07T14:26:44.157Z,9.90
2019-05-07T14:29:13.849Z,9.77
2019-05-07T14:31:42.885Z,8.37
2019-05-07T14:34:18.284Z,9.30
2019-05-07T14:37:04.765Z,9.40
2019-05-07T14:39:33.258Z,9.60
2019-05-07T14:42:05.053Z,8.30
2019-05-07T14:44:50.131Z,9.27
2019-05-07T14:47:22.095Z,8.97
2019-05-07T14:49:52.956Z,8.47
2019-05-07T14:52:30.153Z,9.90
2019-05-07T14:54:53.378Z,8.77
2019-05-07T14:57:22.390Z,9.07
2019-05-07T14:59:52.427Z,8.20
2019-05-07T15:02:23.454Z,8.83
2019-05-07T15:04:52.663Z,9.10
2019-05-07T15:07:22.668Z,10.20
2019-05-07T15:09:52.373Z,10.73
2019-05-07T15:12:23.198Z,9.83
2019-05-07T15:14:52.893Z,8.80
2019-05-07T15:17:32.782Z,8.80
2019-05-07T15:20:02.744Z,9.27
2019-05-07T15:22:48.661Z,13.90
2019-05-07T15:25:13.633Z,10.03
2019-05-07T15:27:44.258Z,9.73
2019-05-07T15:30:13.739Z,11.03
2019-05-07T15:33:02.664Z,10.50
2019-05-07T15:35:32.402Z,11.60
2019-05-07T15:38:02.490Z,9.83
2019-05-07T15:40:33.005Z,8.57
2019-05-07T15:43:02.259Z,10.07
2019-05-07T15:45:31.486Z,10.00
2019-05-07T15:48:02.117Z,10.33
2019-05-07T15:50:32.221Z,9.30
2019-05-07T15:53:07.794Z,9.47
2019-05-07T15:55:37.235Z,8.33
2019-05-07T15:58:06.672Z,8.77
2019-05-07T16:00:37.299Z,7.30
2019-05-07T16:03:17.726Z,7.20
2019-05-07T16:05:46.802Z,8.07
2019-05-07T16:08:17.360Z,8.50
2019-05-07T16:10:46.427Z,7.53
2019-05-07T16:13:19.639Z,7.10
2019-05-07T16:15:49.288Z,7.63
2019-05-07T16:18:23.793Z,6.83
2019-05-07T16:20:52.909Z,9.10
2019-05-07T16:23:22.150Z,6.47
2019-05-07T16:25:52.774Z,6.70
2019-05-07T16:28:22.027Z,6.77
2019-05-07T16:30:52.149Z,7.03
2019-05-07T16:33:21.915Z,5.87
2019-05-07T16:35:50.875Z,6.13
2019-05-07T16:38:21.986Z,5.33
2019-05-07T16:40:52.217Z,5.90
2019-05-07T16:43:22.124Z,7.90
2019-05-07T16:45:51.929Z,6.50
2019-05-07T16:48:23.176Z,6.90
2019-05-07T16:50:52.341Z,5.73
2019-05-07T16:53:29.309Z,5.30
2019-05-07T16:55:52.559Z,5.97
2019-05-07T16:58:43.535Z,6.80
2019-05-07T17:01:12.831Z,6.17
2019-05-07T17:03:55.045Z,5.20
2019-05-07T17:06:25.100Z,5.37
2019-05-07T17:09:13.798Z,6.40
2019-05-07T17:11:43.742Z,6.13
2019-05-07T17:14:13.233Z,6.60
2019-05-07T17:16:42.523Z,6.40
2019-05-07T17:19:13.163Z,6.33
2019-05-07T17:21:43.132Z,6.20
2019-05-07T17:24:33.005Z,6.57
2019-05-07T17:27:02.392Z,5.90
2019-05-07T17:29:32.255Z,6.10
2019-05-07T17:32:01.640Z,5.70
2019-05-07T17:34:30.849Z,5.70
2019-05-07T17:37:01.943Z,6.17
2019-05-07T17:39:32.167Z,5.87
2019-05-07T17:42:02.482Z,6.00
2019-05-07T17:44:32.359Z,5.77
2019-05-07T17:47:02.115Z,7.10
2019-05-07T17:49:32.788Z,5.80
2019-05-07T17:52:02.960Z,5.77
2019-05-07T17:54:32.028Z,6.93
2019-05-07T17:57:02.120Z,5.80
2019-05-07T17:59:32.113Z,6.97
2019-05-07T18:02:11.941Z,5.63
2019-05-07T18:04:50.875Z,6.30
2019-05-07T18:07:13.610Z,6.23
2019-05-07T18:09:42.897Z,6.40
2019-05-07T18:12:12.151Z,6.13
2019-05-07T18:14:42.473Z,6.30
2019-05-07T18:17:22.063Z,12.90
2019-05-07T18:19:51.006Z,10.63
2019-05-07T18:22:21.992Z,6.07
2019-05-07T18:24:50.709Z,5.57
2019-05-07T18:27:23.679Z,5.73
2019-05-07T18:29:52.887Z,5.90
2019-05-07T18:32:22.724Z,6.63
2019-05-07T18:34:52.023Z,5.20
2019-05-07T18:37:22.873Z,5.10
2019-05-07T18:39:52.376Z,5.20
2019-05-07T18:42:22.216Z,5.70
2019-05-07T18:44:52.441Z,5.07
2019-05-07T18:47:22.335Z,6.80
2019-05-07T18:49:51.992Z,6.73
2019-05-07T18:52:22.985Z,4.77
2019-05-07T18:54:52.212Z,5.97
2019-05-07T18:57:22.195Z,6.80
2019-05-07T18:59:53.133Z,6.00
2019-05-07T19:02:23.084Z,5.23
2019-05-07T19:04:52.046Z,5.00
2019-05-07T19:07:23.079Z,6.70
2019-05-07T19:09:52.015Z,5.03
2019-05-07T19:12:23.364Z,5.40
2019-05-07T19:14:52.708Z,5.13
2019-05-07T19:17:25.405Z,5.20
2019-05-07T19:19:53.213Z,5.50
2019-05-07T19:22:22.618Z,7.57
2019-05-07T19:24:52.674Z,5.40
2019-05-07T19:27:22.679Z,5.40
2019-05-07T19:29:51.717Z,6.03
2019-05-07T19:32:22.894Z,5.60
2019-05-07T19:34:53.421Z,6.00
2019-05-07T19:37:22.824Z,6.00
2019-05-07T19:39:52.473Z,5.43
2019-05-07T19:42:21.630Z,5.90
2019-05-07T19:44:51.893Z,6.63
2019-05-07T19:47:23.192Z,6.20
2019-05-07T19:49:52.494Z,5.77
2019-05-07T19:52:23.171Z,6.10
2019-05-07T19:55:00.823Z,7.93
2019-05-07T19:57:28.615Z,6.50
2019-05-07T19:59:57.683Z,6.70
2019-05-07T20:02:32.104Z,6.30
2019-05-07T20:05:03.325Z,6.00
2019-05-07T20:07:32.401Z,5.63
2019-05-07T20:10:02.670Z,5.70
2019-05-07T20:12:32.694Z,8.07
2019-05-07T20:15:02.750Z,13.77
2019-05-07T20:17:34.066Z,6.23
2019-05-07T20:20:06.782Z,5.80
2019-05-07T20:22:35.847Z,5.87
2019-05-07T20:25:15.701Z,6.40
2019-05-07T20:27:36.025Z,5.83
2019-05-07T20:30:05.454Z,5.87
2019-05-07T20:32:34.743Z,6.87
2019-05-07T20:35:04.609Z,6.50
2019-05-07T20:37:33.944Z,6.10
2019-05-07T20:40:03.145Z,6.90
2019-05-07T20:42:32.793Z,6.43
2019-05-07T20:45:02.999Z,7.30
2019-05-07T20:47:32.792Z,8.27
2019-05-07T20:50:01.691Z,6.70
2019-05-07T20:52:32.540Z,6.17
2019-05-07T20:55:31.038Z,6.30
2019-05-07T20:57:57.601Z,6.37
2019-05-07T21:00:27.873Z,7.53
2019-05-07T21:03:14.734Z,6.17
2019-05-07T21:05:43.742Z,6.33
2019-05-07T21:08:12.626Z,6.87
2019-05-07T21:10:42.771Z,7.53
2019-05-07T21:13:26.980Z,5.70
2019-05-07T21:15:42.466Z,5.77
2019-05-07T21:18:12.525Z,6.77
2019-05-07T21:20:42.197Z,9.90
2019-05-07T21:23:12.194Z,9.13
2019-05-07T21:25:45.722Z,6.00
2019-05-07T21:28:12.714Z,6.80
2019-05-07T21:30:42.735Z,6.83
2019-05-07T21:33:12.596Z,5.33
2019-05-07T21:35:42.889Z,6.33
2019-05-07T21:38:12.697Z,6.27
2019-05-07T21:40:42.998Z,5.87
2019-05-07T21:43:14.231Z,6.30
2019-05-07T21:45:43.328Z,6.83
2019-05-07T21:48:13.689Z,6.27
2019-05-07T21:50:42.995Z,6.30
2019-05-07T21:53:18.732Z,5.80
2019-05-07T21:56:05.586Z,6.23
2019-05-07T21:59:03.232Z,5.77
2019-05-07T22:01:46.603Z,6.00
2019-05-07T22:04:15.656Z,5.57
2019-05-07T22:06:45.663Z,5.93
2019-05-07T22:09:33.952Z,5.23
2019-05-07T22:12:03.689Z,7.30
2019-05-07T22:14:32.987Z,6.17
2019-05-07T22:17:02.107Z,6.03
2019-05-07T22:19:33.534Z,5.97
2019-05-07T22:22:02.924Z,5.30
2019-05-07T22:24:32.887Z,6.33
2019-05-07T22:27:03.939Z,6.20
2019-05-07T22:29:32.444Z,6.20
2019-05-07T22:32:26.549Z,5.83
2019-05-07T22:35:14.596Z,6.80
2019-05-07T22:37:43.543Z,5.90
2019-05-07T22:40:13.039Z,6.03
2019-05-07T22:42:41.982Z,6.57
2019-05-07T22:45:12.147Z,5.90
2019-05-07T22:47:41.976Z,5.67
2019-05-07T22:50:11.972Z,6.40
2019-05-07T22:52:41.081Z,6.47
2019-05-07T22:55:13.923Z,5.70
2019-05-07T22:57:59.106Z,5.80
2019-05-07T23:00:32.947Z,5.53
2019-05-07T23:03:02.801Z,6.20
2019-05-07T23:05:32.461Z,6.37
2019-05-07T23:08:02.377Z,5.80
2019-05-07T23:10:33.266Z,5.47
2019-05-07T23:13:02.460Z,4.97
2019-05-07T23:15:32.167Z,5.67
2019-05-07T23:18:04.085Z,5.67
2019-05-07T23:20:32.118Z,6.17
2019-05-07T23:23:01.870Z,5.73
2019-05-07T23:25:32.286Z,6.40
2019-05-07T23:28:04.888Z,6.37
2019-05-07T23:30:33.101Z,7.00
2019-05-07T23:33:02.525Z,5.73
2019-05-07T23:35:32.855Z,5.57
2019-05-07T23:38:02.448Z,5.73
2019-05-07T23:40:42.620Z,5.90
2019-05-07T23:43:12.322Z,5.77
2019-05-07T23:45:42.041Z,5.47
2019-05-07T23:48:12.339Z,6.10
2019-05-07T23:50:42.121Z,5.03
2019-05-07T23:53:12.957Z,5.53
2019-05-07T23:55:42.424Z,6.40
2019-05-07T23:58:32.583Z,6.20
